Time;durP1;ratioP1;P1;durP2;ratioP2;P2;SDS_P1;SDS_P2;PMS_P1;PMS_P2;Temp;Humidity;BMP_temperature;BMP_pressure;BME280_temperature;BME280_humidity;BME280_pressure;Samples;Min_cycle;Max_cycle;Signal;HPM_P1;HPM_P2
2022/07/11 00:00:09;;;;;;;1.73;0.90;;;14.90;99.90;;;;;;5054174;28;20224;-58
2022/07/11 00:02:38;;;;;;;2.10;0.80;;;15.00;99.90;;;;;;5033566;28;20272;-56
2022/07/11 00:05:09;;;;;;;1.87;1.00;;;15.00;99.90;;;;;;5033834;28;20248;-57
2022/07/11 00:07:38;;;;;;;2.47;0.80;;;15.00;99.90;;;;;;5040979;28;20277;-57
2022/07/11 00:10:07;;;;;;;2.27;1.00;;;15.00;99.90;;;;;;5053729;28;20228;-56
2022/07/11 00:12:35;;;;;;;1.40;0.90;;;15.00;99.90;;;;;;5055189;28;20224;-57
2022/07/11 00:15:04;;;;;;;2.03;0.93;;;14.90;99.90;;;;;;5053568;28;20236;-57
2022/07/11 00:17:32;;;;;;;2.40;0.87;;;14.90;99.90;;;;;;5050982;28;20687;-56
2022/07/11 00:20:01;;;;;;;1.43;0.70;;;14.90;99.90;;;;;;5053607;28;20212;-57
2022/07/11 00:22:30;;;;;;;2.43;0.80;;;14.90;99.90;;;;;;5053933;28;20330;-56
2022/07/11 00:24:58;;;;;;;1.73;0.70;;;14.90;99.90;;;;;;5053491;28;20282;-57
2022/07/11 00:27:27;;;;;;;1.70;0.87;;;14.90;99.90;;;;;;5052069;28;20587;-57
2022/07/11 00:29:55;;;;;;;2.53;0.93;;;14.90;99.90;;;;;;5051531;28;20579;-56
2022/07/11 00:32:23;;;;;;;3.30;0.90;;;14.90;99.90;;;;;;5053502;28;20232;-56
2022/07/11 00:34:51;;;;;;;1.43;0.70;;;14.90;99.90;;;;;;5053549;28;20224;-57
2022/07/11 00:37:19;;;;;;;2.20;0.93;;;14.90;99.90;;;;;;5051464;28;20557;-57
2022/07/11 00:39:49;;;;;;;1.47;0.80;;;14.90;99.90;;;;;;5052970;28;20220;-57
2022/07/11 00:42:17;;;;;;;1.73;0.80;;;14.90;99.90;;;;;;5055200;28;20224;-56
2022/07/11 00:44:46;;;;;;;2.50;0.90;;;14.90;99.90;;;;;;5053429;28;20720;-57
2022/07/11 00:47:14;;;;;;;3.00;1.10;;;14.90;99.90;;;;;;5051491;28;20258;-57
2022/07/11 00:49:42;;;;;;;1.10;0.80;;;14.90;99.90;;;;;;5052766;28;20707;-57
2022/07/11 00:52:12;;;;;;;1.63;1.07;;;14.90;99.90;;;;;;5053085;28;20236;-57
2022/07/11 00:54:41;;;;;;;2.10;1.00;;;14.80;99.90;;;;;;5052844;28;20315;-56
2022/07/11 00:57:10;;;;;;;2.80;0.90;;;14.80;99.90;;;;;;5049355;28;20220;-57
2022/07/11 00:59:39;;;;;;;1.13;0.90;;;14.80;99.90;;;;;;5045186;28;20220;-57
2022/07/11 01:02:07;;;;;;;2.27;0.93;;;14.70;99.90;;;;;;5052832;28;20310;-57
2022/07/11 01:04:35;;;;;;;1.37;0.90;;;14.80;99.90;;;;;;5053101;28;20228;-57
2022/07/11 01:07:04;;;;;;;1.13;0.80;;;14.70;99.90;;;;;;5052218;28;20259;-57
2022/07/11 01:09:32;;;;;;;2.67;1.00;;;14.70;99.90;;;;;;5052201;28;20714;-57
2022/07/11 01:12:01;;;;;;;2.77;1.00;;;14.70;99.90;;;;;;5054476;28;20282;-57
2022/07/11 01:14:30;;;;;;;2.13;0.97;;;14.70;99.90;;;;;;5052163;28;20230;-57
2022/07/11 01:16:58;;;;;;;1.67;0.90;;;14.70;99.90;;;;;;5052385;28;20228;-57
2022/07/11 01:19:26;;;;;;;2.30;1.00;;;14.80;99.90;;;;;;5051241;28;20586;-57
2022/07/11 01:21:59;;;;;;;2.03;1.00;;;14.70;99.90;;;;;;5053053;28;20231;-56
2022/07/11 01:24:28;;;;;;;1.37;1.00;;;14.70;99.90;;;;;;5052226;28;20455;-57
2022/07/11 01:26:57;;;;;;;1.50;1.00;;;14.70;99.90;;;;;;5051810;28;20236;-56
2022/07/11 01:29:25;;;;;;;3.90;1.00;;;14.60;99.90;;;;;;5050947;28;20318;-57
2022/07/11 01:31:53;;;;;;;1.67;0.93;;;14.60;99.90;;;;;;5052093;28;20232;-57
2022/07/11 01:34:21;;;;;;;3.90;1.00;;;14.60;99.90;;;;;;5052593;28;20216;-57
2022/07/11 01:36:49;;;;;;;1.83;1.00;;;14.60;99.90;;;;;;5052696;28;20224;-57
2022/07/11 01:39:17;;;;;;;1.63;0.90;;;14.60;99.90;;;;;;5050583;28;20255;-57
2022/07/11 01:41:46;;;;;;;2.47;1.03;;;14.70;99.90;;;;;;5054058;28;20719;-57
2022/07/11 01:44:15;;;;;;;1.33;0.90;;;14.60;99.90;;;;;;5052654;28;20226;-57
2022/07/11 01:46:43;;;;;;;5.90;1.23;;;14.60;99.90;;;;;;5052120;28;20253;-57
2022/07/11 01:49:11;;;;;;;1.70;1.00;;;14.60;99.90;;;;;;5050432;28;20239;-57
2022/07/11 01:51:39;;;;;;;2.83;1.00;;;14.60;99.90;;;;;;5052045;28;20266;-56
2022/07/11 01:54:07;;;;;;;1.73;1.10;;;14.60;99.90;;;;;;5052360;28;20219;-57
2022/07/11 01:56:35;;;;;;;2.23;1.10;;;14.60;99.90;;;;;;5052030;28;20259;-57
2022/07/11 01:59:05;;;;;;;1.67;0.90;;;14.60;99.90;;;;;;5051045;28;20764;-57
2022/07/11 02:01:33;;;;;;;2.23;1.00;;;14.70;99.90;;;;;;5051623;28;20228;-57
2022/07/11 02:04:01;;;;;;;1.37;0.90;;;14.60;99.90;;;;;;5052602;28;20711;-57
2022/07/11 02:06:30;;;;;;;2.40;1.23;;;14.60;99.90;;;;;;5052425;28;20318;-56
2022/07/11 02:08:58;;;;;;;1.60;1.10;;;14.60;99.90;;;;;;5045918;28;20228;-57
2022/07/11 02:11:26;;;;;;;1.97;0.83;;;14.60;99.90;;;;;;5053611;28;20253;-57
2022/07/11 02:13:54;;;;;;;1.57;1.00;;;14.60;99.90;;;;;;5051963;28;20216;-57
2022/07/11 02:16:24;;;;;;;1.70;1.07;;;14.70;99.90;;;;;;5052126;28;20230;-56
2022/07/11 02:18:52;;;;;;;1.53;1.13;;;14.70;99.90;;;;;;5050651;28;20281;-57
2022/07/11 02:21:20;;;;;;;1.13;1.03;;;14.70;99.90;;;;;;5052278;28;20247;-56
2022/07/11 02:23:48;;;;;;;1.97;1.00;;;14.70;99.90;;;;;;5052034;28;20239;-57
2022/07/11 02:26:16;;;;;;;3.07;1.30;;;14.70;99.90;;;;;;5052593;28;20642;-57
2022/07/11 02:28:44;;;;;;;1.50;1.40;;;14.80;99.90;;;;;;5054366;28;20240;-57
2022/07/11 02:31:13;;;;;;;3.50;1.00;;;14.80;99.90;;;;;;5054705;28;20354;-57
2022/07/11 02:33:43;;;;;;;1.00;1.00;;;14.80;99.90;;;;;;5055908;28;20255;-57
2022/07/11 02:36:12;;;;;;;2.27;1.10;;;14.70;99.90;;;;;;5055623;28;20228;-56
2022/07/11 02:38:42;;;;;;;1.37;1.23;;;14.80;99.90;;;;;;5053396;28;20575;-57
2022/07/11 02:41:10;;;;;;;2.50;1.10;;;14.70;99.90;;;;;;5057001;28;20222;-57
2022/07/11 02:43:38;;;;;;;2.80;1.10;;;14.70;99.90;;;;;;5055637;28;20695;-57
2022/07/11 02:46:07;;;;;;;2.27;1.30;;;14.60;99.90;;;;;;5055471;28;20254;-57
2022/07/11 02:48:35;;;;;;;2.23;1.10;;;14.60;99.90;;;;;;5053944;28;20231;-57
2022/07/11 02:51:04;;;;;;;2.37;1.07;;;14.70;99.90;;;;;;5055163;28;20224;-57
2022/07/11 02:53:33;;;;;;;3.13;1.13;;;14.70;99.90;;;;;;5055456;28;20223;-57
2022/07/11 02:56:01;;;;;;;2.10;1.10;;;14.60;99.90;;;;;;5055332;28;20253;-57
2022/07/11 02:58:29;;;;;;;2.53;1.13;;;14.60;99.90;;;;;;5053546;28;20289;-57
2022/07/11 03:00:57;;;;;;;1.83;1.10;;;14.70;99.90;;;;;;5055025;28;20234;-57
2022/07/11 03:03:25;;;;;;;1.90;1.20;;;14.70;99.90;;;;;;5055242;28;20233;-57
2022/07/11 03:05:53;;;;;;;1.80;1.20;;;14.70;99.90;;;;;;5055198;28;20263;-57
2022/07/11 03:08:24;;;;;;;3.17;1.40;;;14.60;99.90;;;;;;5053837;28;20744;-57
2022/07/11 03:10:52;;;;;;;1.43;1.20;;;14.70;99.90;;;;;;5055223;28;20289;-57
2022/07/11 03:13:20;;;;;;;2.30;1.60;;;14.70;99.90;;;;;;5056609;28;20260;-57
2022/07/11 03:15:48;;;;;;;1.40;1.30;;;14.70;99.90;;;;;;5054777;28;20231;-57
2022/07/11 03:18:16;;;;;;;1.73;1.20;;;14.70;99.90;;;;;;5054373;28;20216;-57
2022/07/11 03:20:45;;;;;;;2.07;1.03;;;14.70;99.90;;;;;;5054947;28;20243;-57
2022/07/11 03:23:13;;;;;;;1.40;1.27;;;14.70;99.90;;;;;;5054804;28;20224;-57
2022/07/11 03:25:43;;;;;;;3.63;1.20;;;14.80;99.90;;;;;;5053475;28;20256;-57
2022/07/11 03:28:11;;;;;;;2.43;1.40;;;14.70;99.90;;;;;;5054142;28;20224;-56
2022/07/11 03:30:39;;;;;;;1.20;1.10;;;14.80;99.90;;;;;;5051955;28;20687;-57
2022/07/11 03:33:07;;;;;;;1.43;1.00;;;14.70;99.90;;;;;;5055068;28;20228;-57
2022/07/11 03:35:41;;;;;;;3.33;1.30;;;14.70;99.90;;;;;;5048361;28;20229;-57
2022/07/11 03:38:10;;;;;;;2.30;1.23;;;14.90;99.90;;;;;;5053230;28;20227;-57
2022/07/11 03:40:40;;;;;;;1.23;1.10;;;15.00;99.90;;;;;;5054316;28;20223;-57
2022/07/11 03:43:09;;;;;;;1.47;1.10;;;14.90;99.90;;;;;;5064168;28;20220;-64
2022/07/11 03:45:38;;;;;;;1.40;1.30;;;14.90;99.90;;;;;;5066856;28;20287;-68
2022/07/11 03:48:07;;;;;;;1.90;1.23;;;14.90;99.90;;;;;;5065327;28;20224;-60
2022/07/11 03:50:36;;;;;;;1.90;1.20;;;14.90;99.90;;;;;;5065648;28;20227;-64
2022/07/11 03:53:04;;;;;;;2.83;1.30;;;14.90;99.90;;;;;;5066159;28;20294;-63
2022/07/11 03:55:33;;;;;;;1.97;1.30;;;15.00;99.90;;;;;;5063609;28;20227;-65
2022/07/11 03:58:01;;;;;;;1.83;1.20;;;15.00;99.90;;;;;;5061734;28;20259;-63
2022/07/11 04:00:31;;;;;;;1.63;1.43;;;15.00;99.90;;;;;;5062946;28;20249;-59
2022/07/11 04:02:59;;;;;;;2.53;1.27;;;15.10;99.90;;;;;;5064630;28;20302;-65
2022/07/11 04:05:28;;;;;;;1.63;1.33;;;15.20;99.90;;;;;;5061661;28;20232;-62
2022/07/11 04:07:57;;;;;;;1.63;1.40;;;15.20;99.90;;;;;;5065806;28;20238;-69
2022/07/11 04:10:25;;;;;;;1.70;1.60;;;15.20;99.90;;;;;;5063601;28;20220;-65
2022/07/11 04:12:53;;;;;;;2.17;1.37;;;15.30;99.90;;;;;;5063258;28;20737;-65
2022/07/11 04:15:22;;;;;;;1.83;1.33;;;15.30;99.90;;;;;;5058793;28;20228;-58
2022/07/11 04:17:51;;;;;;;1.37;1.27;;;15.30;99.90;;;;;;5058307;28;20692;-57
2022/07/11 04:20:19;;;;;;;1.57;1.23;;;15.40;99.90;;;;;;5056927;28;20234;-57
2022/07/11 04:22:49;;;;;;;1.40;1.30;;;15.50;99.90;;;;;;5055202;28;20683;-58
2022/07/11 04:25:17;;;;;;;3.43;1.40;;;15.50;99.90;;;;;;5051454;28;20256;-58
2022/07/11 04:27:45;;;;;;;3.10;1.40;;;15.60;99.90;;;;;;5052704;28;20707;-57
2022/07/11 04:30:13;;;;;;;1.83;1.20;;;15.70;99.90;;;;;;5052946;28;20220;-58
2022/07/11 04:32:41;;;;;;;1.60;1.13;;;15.80;99.90;;;;;;5052643;28;20299;-57
2022/07/11 04:35:11;;;;;;;2.13;1.33;;;15.90;99.90;;;;;;5052828;28;20228;-57
2022/07/11 04:37:39;;;;;;;3.07;1.37;;;16.10;99.90;;;;;;5044784;28;20224;-57
2022/07/11 04:40:08;;;;;;;4.43;1.50;;;16.20;99.90;;;;;;5053429;28;20231;-57
2022/07/11 04:42:41;;;;;;;2.13;1.20;;;16.50;99.90;;;;;;5048542;28;20254;-58
2022/07/11 04:45:10;;;;;;;2.10;1.17;;;16.60;99.90;;;;;;5039008;28;20268;-57
2022/07/11 04:47:38;;;;;;;1.60;1.10;;;16.70;99.90;;;;;;5039066;28;20263;-58
2022/07/11 04:50:07;;;;;;;1.10;1.00;;;17.00;99.90;;;;;;5058024;28;20273;-58
2022/07/11 04:52:37;;;;;;;2.40;1.40;;;17.10;99.90;;;;;;5052929;28;20224;-58
2022/07/11 04:55:06;;;;;;;2.67;1.03;;;17.20;99.90;;;;;;5052153;28;20228;-58
2022/07/11 04:57:34;;;;;;;3.07;1.20;;;17.10;99.90;;;;;;5051580;28;20708;-58
2022/07/11 05:00:03;;;;;;;1.80;1.00;;;17.10;99.90;;;;;;5052317;28;20273;-58
2022/07/11 05:02:31;;;;;;;2.37;1.10;;;17.00;99.90;;;;;;5052269;28;20737;-58
2022/07/11 05:04:59;;;;;;;1.97;1.27;;;17.00;99.90;;;;;;5052946;28;20232;-58
2022/07/11 05:07:28;;;;;;;2.33;1.17;;;17.00;99.90;;;;;;5051827;28;20236;-58
2022/07/11 05:09:57;;;;;;;2.33;1.00;;;16.90;99.90;;;;;;5048389;28;20255;-58
2022/07/11 05:12:26;;;;;;;2.50;1.33;;;16.90;99.90;;;;;;5053873;28;20228;-58
2022/07/11 05:14:55;;;;;;;4.07;1.30;;;16.90;99.90;;;;;;5053086;28;20228;-58
2022/07/11 05:17:23;;;;;;;3.30;1.10;;;17.00;99.90;;;;;;5052011;28;20240;-58
2022/07/11 05:19:51;;;;;;;1.60;1.17;;;17.00;99.90;;;;;;5052720;28;20316;-58
2022/07/11 05:22:20;;;;;;;2.10;1.10;;;17.20;99.90;;;;;;5052899;28;20613;-57
2022/07/11 05:24:48;;;;;;;2.77;1.13;;;17.30;99.90;;;;;;5051706;28;20286;-59
2022/07/11 05:27:17;;;;;;;3.43;1.23;;;17.50;99.90;;;;;;5051557;28;20239;-58
2022/07/11 05:29:45;;;;;;;3.97;1.50;;;17.50;99.90;;;;;;5052235;28;20224;-58
2022/07/11 05:32:14;;;;;;;2.63;1.33;;;17.50;99.90;;;;;;5049460;28;20627;-58
2022/07/11 05:34:42;;;;;;;4.67;1.80;;;17.40;99.90;;;;;;5052307;28;20225;-58
2022/07/11 05:37:10;;;;;;;3.57;1.37;;;17.40;99.90;;;;;;5051309;28;20682;-59
2022/07/11 05:39:38;;;;;;;3.13;1.30;;;17.30;99.90;;;;;;5044690;28;20216;-58
2022/07/11 05:42:07;;;;;;;2.30;1.47;;;17.30;99.90;;;;;;5052100;28;20221;-58
2022/07/11 05:44:36;;;;;;;2.73;1.30;;;17.40;99.90;;;;;;5051095;28;20227;-59
2022/07/11 05:47:05;;;;;;;3.63;1.40;;;17.40;99.90;;;;;;5049472;28;20243;-59
2022/07/11 05:49:34;;;;;;;2.83;1.43;;;17.50;99.90;;;;;;5049442;28;20244;-58
2022/07/11 05:52:02;;;;;;;1.97;1.00;;;17.60;99.90;;;;;;5051453;28;20278;-59
2022/07/11 05:54:31;;;;;;;3.43;1.20;;;17.70;99.90;;;;;;5054997;28;20228;-59
2022/07/11 05:57:01;;;;;;;1.93;1.20;;;17.90;99.90;;;;;;5051664;28;20300;-58
2022/07/11 05:59:29;;;;;;;4.47;1.30;;;18.10;99.90;;;;;;5052142;28;20240;-59
2022/07/11 06:01:58;;;;;;;4.67;1.40;;;18.30;99.90;;;;;;5052030;28;20231;-59
2022/07/11 06:04:27;;;;;;;3.37;1.17;;;18.30;99.90;;;;;;5056807;28;20225;-59
2022/07/11 06:06:55;;;;;;;2.50;0.90;;;18.20;99.90;;;;;;5056411;28;20313;-59
2022/07/11 06:09:23;;;;;;;4.53;1.20;;;18.20;99.90;;;;;;5057547;28;20231;-59
2022/07/11 06:11:52;;;;;;;2.33;0.87;;;18.20;99.90;;;;;;5057128;28;20214;-59
2022/07/11 06:14:20;;;;;;;1.60;1.00;;;18.20;99.90;;;;;;5055173;28;20285;-59
2022/07/11 06:16:49;;;;;;;2.60;1.00;;;18.20;99.90;;;;;;5052638;28;20225;-59
2022/07/11 06:19:19;;;;;;;2.10;0.90;;;18.20;99.90;;;;;;5049961;28;20240;-58
2022/07/11 06:21:47;;;;;;;2.93;1.13;;;18.20;99.90;;;;;;5051733;28;20231;-59
2022/07/11 06:24:15;;;;;;;3.13;1.17;;;18.30;99.90;;;;;;5052130;28;20737;-58
2022/07/11 06:26:44;;;;;;;4.30;1.20;;;18.20;99.90;;;;;;5053036;28;20690;-59
2022/07/11 06:29:12;;;;;;;1.57;0.83;;;18.10;99.90;;;;;;5051949;28;20230;-59
2022/07/11 06:31:41;;;;;;;1.83;0.80;;;18.10;99.90;;;;;;5054913;28;20240;-59
2022/07/11 06:34:09;;;;;;;2.20;0.90;;;18.10;99.90;;;;;;5054480;28;20244;-59
2022/07/11 06:36:39;;;;;;;2.83;1.10;;;18.20;99.90;;;;;;5053780;28;20238;-59
2022/07/11 06:39:07;;;;;;;4.30;0.97;;;18.20;99.90;;;;;;5051694;28;20316;-59
2022/07/11 06:41:35;;;;;;;4.57;1.23;;;18.30;99.90;;;;;;5050175;28;20261;-60
2022/07/11 06:44:03;;;;;;;3.37;1.00;;;18.40;99.90;;;;;;5056136;28;20222;-58
2022/07/11 06:46:31;;;;;;;4.43;1.10;;;18.50;99.90;;;;;;5052705;28;20247;-59
2022/07/11 06:48:59;;;;;;;6.50;0.97;;;18.60;99.90;;;;;;5052461;28;20246;-59
2022/07/11 06:51:27;;;;;;;1.87;0.87;;;18.70;99.90;;;;;;5052188;28;21214;-59
2022/07/11 06:53:57;;;;;;;1.43;0.70;;;18.70;99.90;;;;;;5051468;28;20238;-59
2022/07/11 06:56:25;;;;;;;2.07;0.80;;;18.80;99.90;;;;;;5054130;28;21066;-58
2022/07/11 06:58:53;;;;;;;2.87;1.00;;;18.80;99.90;;;;;;5051764;28;20218;-58
2022/07/11 07:01:21;;;;;;;2.23;1.13;;;18.90;99.90;;;;;;5051597;28;20331;-59
2022/07/11 07:03:49;;;;;;;2.13;0.90;;;18.90;99.90;;;;;;5052611;28;20223;-59
2022/07/11 07:06:17;;;;;;;2.93;0.90;;;18.80;99.90;;;;;;5051052;28;20234;-59
2022/07/11 07:08:46;;;;;;;4.17;1.03;;;18.70;99.90;;;;;;5051158;28;20560;-59
2022/07/11 07:11:16;;;;;;;2.13;1.33;;;18.60;99.90;;;;;;5055275;28;20229;-59
2022/07/11 07:13:45;;;;;;;2.63;0.80;;;18.60;99.90;;;;;;5054970;28;20329;-59
2022/07/11 07:16:14;;;;;;;2.77;0.90;;;18.50;99.90;;;;;;5051118;28;20221;-58
2022/07/11 07:18:45;;;;;;;2.23;1.10;;;18.50;99.90;;;;;;5049900;28;20417;-59
2022/07/11 07:21:14;;;;;;;2.93;0.90;;;18.50;99.90;;;;;;5052580;28;20234;-59
2022/07/11 07:23:42;;;;;;;4.73;1.20;;;19.00;99.90;;;;;;5052184;28;20312;-59
2022/07/11 07:26:20;;;;;;;3.30;0.90;;;19.00;99.90;;;;;;5050767;28;20255;-59
2022/07/11 07:28:48;;;;;;;1.43;0.80;;;18.90;99.90;;;;;;5051159;28;20222;-59
2022/07/11 07:31:16;;;;;;;2.77;1.07;;;19.00;99.90;;;;;;5047860;28;21106;-58
2022/07/11 07:33:44;;;;;;;1.90;1.10;;;18.90;99.90;;;;;;5051196;28;20226;-58
2022/07/11 07:36:14;;;;;;;2.43;1.10;;;19.00;99.90;;;;;;5050845;28;20280;-59
2022/07/11 07:38:43;;;;;;;3.10;1.03;;;19.00;99.90;;;;;;5056145;28;20234;-59
2022/07/11 07:41:12;;;;;;;2.83;1.10;;;18.90;99.90;;;;;;5058070;28;20253;-59
2022/07/11 07:43:42;;;;;;;1.67;0.90;;;18.70;99.90;;;;;;5052669;28;20311;-59
2022/07/11 07:46:11;;;;;;;2.67;1.10;;;18.50;99.90;;;;;;5053908;28;20594;-59
2022/07/11 07:48:39;;;;;;;2.03;1.00;;;18.50;99.90;;;;;;5053310;28;20296;-59
2022/07/11 07:51:08;;;;;;;1.73;1.00;;;18.40;99.90;;;;;;5057723;28;20637;-59
2022/07/11 07:53:36;;;;;;;1.70;0.90;;;18.50;99.90;;;;;;5052477;28;20258;-59
2022/07/11 07:56:05;;;;;;;2.80;1.43;;;18.40;99.90;;;;;;5054321;28;20233;-59
2022/07/11 07:58:33;;;;;;;5.47;1.10;;;18.40;99.90;;;;;;5051435;28;20253;-59
2022/07/11 08:03:49;;;;;;;1.97;0.87;;;18.80;99.90;;;;;;5053766;28;20234;-58
2022/07/11 08:06:17;;;;;;;2.03;0.90;;;19.20;99.90;;;;;;5051592;28;20235;-59
2022/07/11 08:08:45;;;;;;;2.20;0.70;;;19.50;99.90;;;;;;5051199;28;21647;-59
2022/07/11 08:11:13;;;;;;;1.77;0.80;;;19.70;99.90;;;;;;5050375;28;20786;-58
2022/07/11 08:13:58;;;;;;;2.13;0.80;;;19.80;99.90;;;;;;5049239;28;20309;-58
2022/07/11 08:16:29;;;;;;;1.77;0.80;;;19.80;99.90;;;;;;5048114;28;20635;-59
2022/07/11 08:19:00;;;;;;;1.80;0.87;;;19.80;99.90;;;;;;5048825;28;20310;-59
2022/07/11 08:21:29;;;;;;;1.03;0.80;;;19.80;99.90;;;;;;5049311;28;20278;-59
2022/07/11 08:23:58;;;;;;;1.23;0.80;;;19.70;99.90;;;;;;5046318;28;20228;-59
2022/07/11 08:26:26;;;;;;;1.37;0.90;;;19.70;99.90;;;;;;5050767;28;20274;-58
2022/07/11 08:29:01;;;;;;;0.93;0.80;;;19.70;99.90;;;;;;5048781;28;20264;-59
2022/07/11 08:31:31;;;;;;;2.73;1.10;;;19.70;99.90;;;;;;5050052;28;20841;-59
2022/07/11 08:34:02;;;;;;;1.60;0.80;;;19.70;99.90;;;;;;5049858;28;20227;-59
2022/07/11 08:36:32;;;;;;;1.40;0.73;;;19.80;99.90;;;;;;5050481;28;20276;-60
2022/07/11 08:39:00;;;;;;;2.97;0.93;;;20.50;99.90;;;;;;5049651;28;20234;-59
2022/07/11 08:41:28;;;;;;;1.37;0.80;;;21.00;99.90;;;;;;5049905;28;20235;-59
2022/07/11 08:43:57;;;;;;;2.80;0.90;;;21.30;99.90;;;;;;5049954;28;20665;-59
2022/07/11 08:46:27;;;;;;;2.30;0.80;;;21.40;99.90;;;;;;5048014;28;21141;-59
2022/07/11 08:48:57;;;;;;;2.00;1.07;;;21.40;99.90;;;;;;5049549;28;20711;-59
2022/07/11 08:51:27;;;;;;;2.17;0.80;;;21.60;99.90;;;;;;5048900;28;20610;-59
2022/07/11 08:53:56;;;;;;;1.80;0.90;;;21.60;99.90;;;;;;5051851;28;20816;-59
2022/07/11 08:56:29;;;;;;;1.83;0.77;;;21.50;99.90;;;;;;5052520;28;20740;-59
2022/07/11 08:59:00;;;;;;;2.53;0.83;;;21.40;99.90;;;;;;5048132;28;20254;-59
2022/07/11 09:01:30;;;;;;;1.90;1.03;;;21.50;99.90;;;;;;5051924;28;20294;-59
2022/07/11 09:04:01;;;;;;;2.20;1.00;;;21.40;99.90;;;;;;5054950;28;20223;-58
2022/07/11 09:06:30;;;;;;;5.47;1.20;;;21.40;99.90;;;;;;5053805;28;20232;-59
2022/07/11 09:09:00;;;;;;;1.70;0.77;;;21.50;99.90;;;;;;5055432;28;20293;-58
2022/07/11 09:11:29;;;;;;;1.00;0.70;;;21.40;99.90;;;;;;5052615;28;20235;-59
2022/07/11 09:13:58;;;;;;;2.80;1.00;;;21.30;99.90;;;;;;5052054;28;20235;-59
2022/07/11 09:16:28;;;;;;;1.17;0.80;;;21.20;99.90;;;;;;5056250;28;20243;-59
2022/07/11 09:19:01;;;;;;;1.70;0.90;;;21.00;99.90;;;;;;5051470;28;21252;-59
2022/07/11 09:27:00;;;;;;;1.60;1.20;;;21.00;99.90;;;;;;5055832;28;20722;-59
2022/07/11 09:29:31;;;;;;;1.20;0.80;;;21.10;99.90;;;;;;5054439;28;20236;-59
2022/07/11 09:31:59;;;;;;;1.07;0.80;;;21.10;99.90;;;;;;5053495;28;20269;-59
2022/07/11 09:34:29;;;;;;;1.00;0.70;;;21.20;99.90;;;;;;5055338;28;20239;-59
2022/07/11 09:36:57;;;;;;;1.40;0.80;;;21.30;99.90;;;;;;5046624;28;20227;-59
2022/07/11 09:39:27;;;;;;;2.17;0.80;;;21.20;99.90;;;;;;5051591;28;20636;-59
2022/07/11 09:41:57;;;;;;;1.27;0.67;;;21.00;99.90;;;;;;5048332;28;20219;-59
2022/07/11 09:44:28;;;;;;;0.87;0.80;;;20.90;99.90;;;;;;5048931;28;20272;-59
2022/07/11 09:46:57;;;;;;;1.50;0.60;;;20.90;99.90;;;;;;5052189;28;20253;-59
2022/07/11 09:49:35;;;;;;;0.93;0.50;;;21.00;99.90;;;;;;5054323;28;20808;-59
2022/07/11 09:52:11;;;;;;;1.23;0.70;;;20.90;99.90;;;;;;5056262;28;20277;-60
2022/07/11 09:54:56;;;;;;;0.87;0.40;;;20.80;99.90;;;;;;5067928;28;20298;-59
2022/07/11 09:57:31;;;;;;;2.03;0.60;;;20.70;99.90;;;;;;5054280;28;20239;-59
2022/07/11 10:00:01;;;;;;;1.70;0.60;;;20.60;99.90;;;;;;5050321;28;20734;-59
2022/07/11 10:02:32;;;;;;;0.70;0.60;;;20.60;99.90;;;;;;5050365;28;20662;-59
2022/07/11 10:05:02;;;;;;;0.90;0.57;;;20.60;99.90;;;;;;5046173;28;20779;-59
2022/07/11 10:07:31;;;;;;;1.27;0.50;;;20.60;99.90;;;;;;5046788;28;20254;-59
2022/07/11 10:09:59;;;;;;;1.17;0.50;;;20.60;99.90;;;;;;5049581;28;20239;-59
2022/07/11 10:12:31;;;;;;;0.90;0.60;;;20.70;99.90;;;;;;5047697;28;20252;-60
2022/07/11 10:15:03;;;;;;;0.93;0.40;;;20.70;99.90;;;;;;5045359;28;20284;-58
2022/07/11 10:17:41;;;;;;;1.27;0.50;;;20.90;99.90;;;;;;5048404;28;20242;-60
2022/07/11 10:20:18;;;;;;;0.97;0.50;;;21.00;99.90;;;;;;5052736;28;20333;-60
2022/07/11 10:22:51;;;;;;;0.80;0.50;;;21.20;99.90;;;;;;5050176;28;20231;-59
2022/07/11 10:25:29;;;;;;;0.40;0.40;;;21.40;99.90;;;;;;5052055;28;20322;-60
2022/07/11 10:28:14;;;;;;;0.93;0.40;;;22.00;99.90;;;;;;5042099;28;20931;-59
2022/07/11 10:30:46;;;;;;;0.50;0.33;;;22.70;99.90;;;;;;5046775;28;20783;-60
2022/07/11 10:33:18;;;;;;;1.03;0.50;;;23.00;99.90;;;;;;5049536;28;20239;-59
2022/07/11 10:35:49;;;;;;;0.30;0.30;;;22.90;99.90;;;;;;5044846;28;20235;-60
2022/07/11 10:38:18;;;;;;;0.60;0.30;;;22.50;99.90;;;;;;5045784;28;20235;-59
2022/07/11 10:40:48;;;;;;;1.17;0.30;;;22.00;99.90;;;;;;5047839;28;20378;-59
2022/07/11 10:43:34;;;;;;;1.23;0.50;;;21.80;99.90;;;;;;5048247;28;20239;-59
2022/07/11 10:46:05;;;;;;;0.40;0.30;;;21.60;99.90;;;;;;5052765;28;20275;-60
2022/07/11 10:48:34;;;;;;;0.30;0.30;;;21.70;99.90;;;;;;5051395;28;20695;-60
2022/07/11 10:51:15;;;;;;;0.43;0.43;;;21.80;99.90;;;;;;5049491;28;20231;-60
2022/07/11 10:53:47;;;;;;;0.93;0.50;;;22.00;99.90;;;;;;5053078;28;20641;-59
2022/07/11 10:56:42;;;;;;;0.83;0.40;;;22.20;99.90;;;;;;5051024;28;20239;-59
2022/07/11 10:59:21;;;;;;;0.47;0.30;;;22.40;99.90;;;;;;5048135;28;20239;-60
2022/07/11 11:02:10;;;;;;;1.00;0.50;;;22.50;99.90;;;;;;5054319;28;20235;-59
2022/07/11 11:04:43;;;;;;;0.50;0.40;;;22.80;99.90;;;;;;5056710;28;20236;-59
2022/07/11 11:07:38;;;;;;;0.60;0.40;;;22.70;99.90;;;;;;5056777;28;20615;-59
2022/07/11 11:10:42;;;;;;;1.13;0.40;;;22.40;99.90;;;;;;5044498;28;20227;-60
2022/07/11 11:13:16;;;;;;;1.30;0.47;;;22.30;99.90;;;;;;5052588;28;20708;-60
2022/07/11 11:15:46;;;;;;;0.50;0.40;;;22.20;99.90;;;;;;5052681;28;20231;-59
2022/07/11 11:18:42;;;;;;;0.40;0.40;;;22.70;99.90;;;;;;5050056;28;20220;-60
2022/07/11 11:21:21;;;;;;;1.20;0.40;;;23.50;99.90;;;;;;5040168;28;20238;-60
2022/07/11 11:24:06;;;;;;;0.30;0.30;;;23.90;99.90;;;;;;5053814;28;20242;-60
2022/07/11 11:26:52;;;;;;;0.40;0.40;;;24.10;99.90;;;;;;5054483;28;20634;-60
2022/07/11 11:29:26;;;;;;;0.50;0.40;;;23.70;99.90;;;;;;5054727;28;20276;-60
2022/07/11 11:31:56;;;;;;;0.70;0.50;;;23.20;99.90;;;;;;5054908;28;20236;-60
2022/07/11 11:34:25;;;;;;;0.70;0.43;;;23.50;99.90;;;;;;5048405;28;20275;-60
2022/07/11 11:36:56;;;;;;;0.30;0.30;;;24.10;99.90;;;;;;5049996;28;20752;-59
2022/07/11 11:39:30;;;;;;;0.43;0.40;;;24.70;99.90;;;;;;5049825;28;20235;-60
2022/07/11 11:42:06;;;;;;;0.30;0.30;;;24.80;99.90;;;;;;5050362;28;20236;-60
2022/07/11 11:44:48;;;;;;;1.07;0.30;;;24.20;99.90;;;;;;5051601;28;20650;-60
2022/07/11 11:47:16;;;;;;;1.17;0.33;;;24.00;99.90;;;;;;5048256;28;20248;-60
2022/07/11 11:49:44;;;;;;;1.27;0.30;;;23.90;99.90;;;;;;5052090;28;20224;-59
2022/07/11 11:52:12;;;;;;;0.57;0.30;;;24.20;99.90;;;;;;5050876;28;20295;-60
2022/07/11 11:54:42;;;;;;;0.30;0.30;;;24.60;99.90;;;;;;5050697;28;20606;-60
2022/07/11 11:57:11;;;;;;;0.40;0.30;;;25.40;99.90;;;;;;5050012;28;20232;-60
2022/07/11 11:59:41;;;;;;;0.40;0.40;;;26.20;99.90;;;;;;5049051;28;20229;-60
2022/07/11 12:02:10;;;;;;;0.40;0.40;;;25.60;99.90;;;;;;5049717;28;20245;-60
2022/07/11 12:04:39;;;;;;;0.30;0.30;;;24.90;99.90;;;;;;5051294;28;20226;-60
2022/07/11 12:07:07;;;;;;;0.40;0.40;;;24.80;99.90;;;;;;5048543;28;20216;-60
2022/07/11 12:09:50;;;;;;;0.87;0.40;;;25.20;99.90;;;;;;5052687;28;20643;-61
2022/07/11 12:15:22;;;;;;;0.30;0.30;;;25.60;99.90;;;;;;5050940;28;20619;-60
2022/07/11 12:17:52;;;;;;;0.40;0.40;;;25.70;99.90;;;;;;5050064;28;21315;-61
2022/07/11 12:20:44;;;;;;;0.40;0.37;;;25.70;99.90;;;;;;5051189;28;20280;-60
2022/07/11 12:23:16;;;;;;;0.40;0.30;;;25.50;99.90;;;;;;5053198;28;20275;-60
2022/07/11 12:25:50;;;;;;;0.40;0.40;;;25.00;99.90;;;;;;5053875;28;20711;-60
2022/07/11 12:28:19;;;;;;;0.30;0.30;;;24.80;99.90;;;;;;5052602;28;20783;-59
2022/07/11 12:30:56;;;;;;;1.00;0.30;;;24.90;99.90;;;;;;5050668;28;20244;-59
2022/07/11 12:33:24;;;;;;;0.30;0.30;;;25.00;99.90;;;;;;5049277;28;20331;-59
2022/07/11 12:35:58;;;;;;;0.40;0.40;;;24.80;99.90;;;;;;5050228;28;20245;-60
2022/07/11 12:38:47;;;;;;;0.50;0.50;;;24.50;99.90;;;;;;5050650;28;20241;-59
2022/07/11 12:41:15;;;;;;;0.57;0.37;;;24.50;99.90;;;;;;5048629;28;20612;-60
2022/07/11 12:46:36;;;;;;;0.53;0.40;;;23.90;99.90;;;;;;5055854;28;20303;-59
2022/07/11 12:49:06;;;;;;;0.40;0.40;;;23.60;99.90;;;;;;5053302;28;20219;-59
2022/07/11 12:51:39;;;;;;;0.30;0.30;;;23.30;99.90;;;;;;5049616;28;20589;-60
2022/07/11 12:54:17;;;;;;;0.40;0.40;;;23.40;99.90;;;;;;5047213;28;20289;-60
2022/07/11 12:56:54;;;;;;;0.47;0.47;;;23.30;99.90;;;;;;5047350;28;20228;-60
2022/07/11 12:59:25;;;;;;;0.60;0.37;;;23.20;99.90;;;;;;5047622;28;20306;-60
2022/07/11 13:01:58;;;;;;;0.37;0.37;;;22.90;99.90;;;;;;5049644;28;20707;-60
2022/07/11 13:04:31;;;;;;;0.30;0.30;;;23.00;99.90;;;;;;5046333;28;20235;-60
2022/07/11 13:09:45;;;;;;;0.50;0.50;;;22.80;99.90;;;;;;5052640;28;20224;-60
2022/07/11 13:12:13;;;;;;;0.40;0.40;;;23.00;99.90;;;;;;5049809;28;20216;-60
2022/07/11 13:17:28;;;;;;;0.40;0.40;;;23.30;99.90;;;;;;5049467;28;20242;-60
2022/07/11 13:19:58;;;;;;;1.33;0.50;;;23.30;99.90;;;;;;5050478;28;20224;-60
2022/07/11 13:22:27;;;;;;;1.17;0.50;;;23.30;99.90;;;;;;5049153;28;20233;-60